Time;durP1;ratioP1;P1;durP2;ratioP2;P2;SDS_P1;SDS_P2;PMS_P1;PMS_P2;Temp;Humidity;BMP_temperature;BMP_pressure;BME280_temperature;BME280_humidity;BME280_pressure;Samples;Min_cycle;Max_cycle;Signal;HPM_P1;HPM_P2
2023/08/19 00:00:50;;;;;;;16.58;12.75;;;;;;;18.43;100.00;98526.75;4175729;28;20284;-74
2023/08/19 00:02:50;;;;;;;18.33;14.10;;;;;;;18.40;100.00;98528.41;4175208;28;20128;-74
2023/08/19 00:04:50;;;;;;;16.15;13.10;;;;;;;18.36;100.00;98527.66;4175910;28;20080;-75
2023/08/19 00:06:51;;;;;;;16.70;14.75;;;;;;;18.30;100.00;98528.59;4175669;28;20098;-74
2023/08/19 00:08:51;;;;;;;15.55;13.02;;;;;;;18.25;100.00;98529.88;4175648;28;20044;-75
2023/08/19 00:10:51;;;;;;;16.25;13.23;;;;;;;18.20;100.00;98533.97;4176336;28;20105;-74
2023/08/19 00:12:52;;;;;;;17.23;14.35;;;;;;;18.19;100.00;98542.78;4174526;28;20053;-75
2023/08/19 00:14:54;;;;;;;17.45;14.30;;;;;;;18.17;100.00;98536.84;4175624;28;20486;-74
2023/08/19 00:16:54;;;;;;;;;;;;;;;18.15;100.00;98542.88;4176028;28;20251;-75
2023/08/19 00:18:55;;;;;;;15.85;13.63;;;;;;;18.10;100.00;98540.53;4175486;28;19921;-74
2023/08/19 00:20:56;;;;;;;21.38;14.63;;;;;;;18.12;100.00;98531.72;4175708;28;20422;-74
2023/08/19 00:22:57;;;;;;;19.83;14.30;;;;;;;18.12;100.00;98540.09;4174567;28;20059;-75
2023/08/19 00:24:57;;;;;;;15.73;13.88;;;;;;;18.13;100.00;98544.53;4175833;28;20511;-75
2023/08/19 00:26:59;;;;;;;16.25;14.55;;;;;;;18.11;100.00;98541.34;4175416;28;20045;-74
2023/08/19 00:29:00;;;;;;;20.20;16.73;;;;;;;18.07;100.00;98540.63;4175170;28;20473;-74
2023/08/19 00:31:00;;;;;;;20.58;16.15;;;;;;;17.98;100.00;98543.97;4175567;28;20047;-75
2023/08/19 00:33:00;;;;;;;20.80;15.38;;;;;;;17.94;100.00;98541.22;4174352;28;20037;-74
2023/08/19 00:35:01;;;;;;;21.10;16.40;;;;;;;17.92;100.00;98543.66;4175278;28;20052;-75
2023/08/19 00:37:01;;;;;;;18.55;15.73;;;;;;;17.90;100.00;98540.50;4174961;28;20047;-75
2023/08/19 00:39:03;;;;;;;18.10;14.95;;;;;;;17.89;100.00;98533.31;4174069;28;20558;-75
2023/08/19 00:41:03;;;;;;;18.80;13.93;;;;;;;17.88;100.00;98544.94;4175240;28;20079;-75
2023/08/19 00:43:05;;;;;;;17.35;13.98;;;;;;;17.86;100.00;98541.75;4174250;28;20493;-74
2023/08/19 00:45:06;;;;;;;17.27;14.07;;;;;;;17.84;100.00;98547.00;4175928;28;20049;-75
2023/08/19 00:47:07;;;;;;;23.17;17.83;;;;;;;17.86;100.00;98553.75;4174763;28;20539;-75
2023/08/19 00:49:07;;;;;;;24.42;17.08;;;;;;;17.79;100.00;98547.47;4174944;28;20072;-74
2023/08/19 00:51:08;;;;;;;22.50;17.50;;;;;;;17.75;100.00;98558.72;4174897;28;20044;-74
2023/08/19 00:53:08;;;;;;;21.35;16.98;;;;;;;17.72;100.00;98550.41;4174774;28;20052;-74
2023/08/19 00:55:09;;;;;;;22.25;16.92;;;;;;;17.68;100.00;98547.63;4174435;28;20105;-75
2023/08/19 00:57:10;;;;;;;27.30;17.33;;;;;;;17.61;100.00;98534.53;4174205;28;20530;-75
2023/08/19 00:59:11;;;;;;;22.83;16.30;;;;;;;17.59;100.00;98541.78;4174232;28;20045;-74
2023/08/19 01:01:11;;;;;;;20.05;16.67;;;;;;;17.55;100.00;98546.66;4175038;28;20044;-74
2023/08/19 01:03:12;;;;;;;19.85;15.82;;;;;;;17.54;100.00;98550.63;4174584;28;20048;-75
2023/08/19 01:05:12;;;;;;;18.88;16.27;;;;;;;17.51;100.00;98535.50;4174100;28;20094;-74
2023/08/19 01:07:12;;;;;;;21.17;16.10;;;;;;;17.51;100.00;98541.09;4174483;28;20043;-74
2023/08/19 01:09:43;;;;;;;19.20;15.10;;;;;;;17.49;100.00;98528.75;4175041;28;20136;-74
2023/08/19 01:12:07;;;;;;;20.73;16.30;;;;;;;17.46;100.00;98524.00;4174125;28;20385;-74
2023/08/19 01:14:44;;;;;;;17.40;14.43;;;;;;;17.45;100.00;98534.38;4173437;28;20055;-74
2023/08/19 01:16:48;;;;;;;19.25;14.60;;;;;;;17.43;100.00;98531.22;4157773;28;20049;-74
2023/08/19 01:18:49;;;;;;;24.27;15.00;;;;;;;17.41;100.00;98523.25;4173334;28;20049;-74
2023/08/19 01:20:52;;;;;;;17.40;14.88;;;;;;;17.41;100.00;98514.88;4174439;28;20567;-74
2023/08/19 01:22:59;;;;;;;16.92;13.55;;;;;;;17.39;100.00;98502.53;4173246;28;20128;-74
2023/08/19 01:25:00;;;;;;;12.05;10.80;;;;;;;17.40;100.00;98513.28;4174027;28;20568;-74
2023/08/19 01:27:03;;;;;;;14.45;11.93;;;;;;;17.37;100.00;98505.72;4174577;28;20076;-74
2023/08/19 01:29:03;;;;;;;14.32;12.60;;;;;;;17.35;100.00;98510.19;4174455;28;20059;-74
2023/08/19 01:31:04;;;;;;;17.23;14.15;;;;;;;17.34;100.00;98508.59;4174579;28;20103;-74
2023/08/19 01:33:05;;;;;;;15.65;13.77;;;;;;;17.32;100.00;98516.63;4173980;28;20184;-74
2023/08/19 01:35:06;;;;;;;18.85;14.98;;;;;;;17.28;100.00;98518.66;4173021;28;20040;-74
2023/08/19 01:37:17;;;;;;;20.25;14.35;;;;;;;17.27;100.00;98515.06;4174299;28;20044;-74
2023/08/19 01:39:22;;;;;;;15.45;12.52;;;;;;;17.18;100.00;98505.63;4174412;28;20123;-74
2023/08/19 01:41:23;;;;;;;13.75;12.27;;;;;;;17.15;100.00;98512.09;4172757;28;20374;-74
2023/08/19 01:43:24;;;;;;;14.88;13.18;;;;;;;17.12;100.00;98513.69;4173501;28;20171;-74
2023/08/19 01:45:26;;;;;;;16.02;12.35;;;;;;;17.07;100.00;98509.38;4174926;28;20053;-74
2023/08/19 01:47:27;;;;;;;17.50;13.70;;;;;;;17.03;100.00;98508.63;4174047;28;20237;-74
2023/08/19 01:49:27;;;;;;;15.90;13.77;;;;;;;17.04;100.00;98509.41;4174341;28;20114;-74
2023/08/19 01:51:31;;;;;;;17.67;13.52;;;;;;;17.05;100.00;98508.22;4174088;28;20123;-74
2023/08/19 01:53:31;;;;;;;16.15;13.00;;;;;;;17.05;100.00;98509.03;4172455;28;20045;-74
2023/08/19 01:55:32;;;;;;;14.68;13.18;;;;;;;17.01;100.00;98508.25;4174084;28;20283;-74
2023/08/19 01:57:32;;;;;;;15.57;13.93;;;;;;;17.01;100.00;98510.28;4174099;28;20075;-74
2023/08/19 01:59:33;;;;;;;22.08;13.80;;;;;;;17.01;100.00;98513.06;4174210;28;20041;-74
2023/08/19 02:01:33;;;;;;;18.23;12.82;;;;;;;16.97;100.00;98517.94;4174241;28;20096;-74
2023/08/19 02:03:34;;;;;;;15.45;13.35;;;;;;;16.95;100.00;98515.53;4173783;28;20049;-74
2023/08/19 02:05:34;;;;;;;17.15;13.23;;;;;;;16.90;100.00;98507.63;4173660;28;20037;-74
2023/08/19 02:07:34;;;;;;;16.80;13.75;;;;;;;16.91;100.00;98514.00;4173611;28;20052;-74
2023/08/19 02:09:35;;;;;;;14.60;12.80;;;;;;;16.89;100.00;98516.44;4174424;28;20053;-74
2023/08/19 02:11:35;;;;;;;18.95;14.07;;;;;;;16.84;100.00;98517.69;4173415;28;20567;-74
2023/08/19 02:13:35;;;;;;;23.60;14.50;;;;;;;16.79;100.00;98520.94;4173194;28;20056;-74
2023/08/19 02:15:36;;;;;;;18.58;14.00;;;;;;;16.75;100.00;98509.03;4174061;28;20045;-73
2023/08/19 02:17:36;;;;;;;18.60;13.43;;;;;;;16.77;100.00;98512.97;4173605;28;20057;-74
2023/08/19 02:19:37;;;;;;;13.00;10.70;;;;;;;16.76;100.00;98507.81;4173809;28;20109;-74
2023/08/19 02:21:37;;;;;;;16.45;13.80;;;;;;;16.76;100.00;98505.81;4173637;28;20053;-74
2023/08/19 02:23:37;;;;;;;17.55;13.73;;;;;;;16.72;100.00;98507.88;4173461;28;20510;-74
2023/08/19 02:25:38;;;;;;;18.40;14.40;;;;;;;16.70;100.00;98503.88;4173124;28;20540;-74
2023/08/19 02:27:38;;;;;;;16.50;13.65;;;;;;;16.66;100.00;98512.28;4173754;28;20114;-74
2023/08/19 02:29:39;;;;;;;16.13;11.57;;;;;;;16.66;100.00;98503.91;4174064;28;20037;-74
2023/08/19 02:31:39;;;;;;;14.02;12.50;;;;;;;16.63;100.00;98492.78;4173828;28;20071;-74
2023/08/19 02:33:41;;;;;;;15.50;12.70;;;;;;;16.56;100.00;98493.66;4172291;28;20103;-74
2023/08/19 02:35:41;;;;;;;15.95;12.70;;;;;;;16.55;100.00;98500.47;4173527;28;20130;-74
2023/08/19 02:37:42;;;;;;;17.23;13.90;;;;;;;16.49;100.00;98497.34;4173350;28;20049;-74
2023/08/19 02:39:42;;;;;;;15.20;12.32;;;;;;;16.46;100.00;98495.34;4173409;28;20501;-74
2023/08/19 02:41:42;;;;;;;13.73;12.27;;;;;;;16.49;100.00;98499.34;4174329;28;20565;-74
2023/08/19 02:43:43;;;;;;;13.15;11.75;;;;;;;16.46;100.00;98500.16;4172812;28;20053;-74
2023/08/19 02:45:44;;;;;;;13.88;12.48;;;;;;;16.45;100.00;98488.19;4173781;28;20131;-74
2023/08/19 02:47:44;;;;;;;12.45;11.15;;;;;;;16.43;100.00;98489.81;4173470;28;20083;-74
2023/08/19 02:49:44;;;;;;;12.43;11.20;;;;;;;16.40;100.00;98499.06;4173567;28;20123;-74
2023/08/19 02:51:45;;;;;;;12.73;11.43;;;;;;;16.36;100.00;98484.31;4173800;28;20079;-74
2023/08/19 02:53:45;;;;;;;13.23;10.93;;;;;;;16.36;100.00;98485.13;4172537;28;20151;-74
2023/08/19 02:55:45;;;;;;;12.63;11.32;;;;;;;16.37;100.00;98486.69;4173836;28;20048;-74
2023/08/19 02:57:46;;;;;;;12.43;11.23;;;;;;;16.36;100.00;98487.13;4173116;28;20049;-74
2023/08/19 02:59:46;;;;;;;11.77;10.57;;;;;;;16.35;100.00;98493.91;4173718;28;20095;-74
2023/08/19 03:01:46;;;;;;;10.93;9.70;;;;;;;16.27;100.00;98487.63;4173831;28;20194;-74
2023/08/19 03:03:47;;;;;;;10.00;8.98;;;;;;;16.19;100.00;98495.28;4172715;28;20607;-74
2023/08/19 03:05:47;;;;;;;10.48;8.05;;;;;;;16.14;100.00;98495.75;4173324;28;20607;-74
2023/08/19 03:07:47;;;;;;;10.98;9.88;;;;;;;16.05;100.00;98491.84;4172251;28;20115;-74
2023/08/19 03:09:48;;;;;;;11.43;10.32;;;;;;;16.00;100.00;98493.88;4173205;28;20049;-74
2023/08/19 03:11:48;;;;;;;11.93;10.70;;;;;;;15.95;100.00;98504.69;4173728;28;20516;-74
2023/08/19 03:13:48;;;;;;;13.02;11.63;;;;;;;15.87;100.00;98503.16;4172715;28;20045;-74
2023/08/19 03:15:49;;;;;;;13.23;11.52;;;;;;;15.83;100.00;98500.44;4173915;28;20459;-73
2023/08/19 03:17:49;;;;;;;21.67;12.18;;;;;;;15.78;100.00;98509.22;4173253;28;20172;-74
2023/08/19 03:19:50;;;;;;;13.60;11.55;;;;;;;15.76;100.00;98508.06;4172916;28;20131;-74
2023/08/19 03:21:51;;;;;;;11.75;10.55;;;;;;;15.80;100.00;98511.59;4174319;28;20059;-74
2023/08/19 03:23:51;;;;;;;11.68;10.57;;;;;;;15.79;100.00;98515.59;4175214;28;20132;-74
2023/08/19 03:25:52;;;;;;;12.82;10.98;;;;;;;15.84;100.00;98515.16;4176033;28;20087;-73
2023/08/19 03:27:52;;;;;;;12.30;11.10;;;;;;;15.85;100.00;98508.38;4176677;28;20122;-74
2023/08/19 03:29:53;;;;;;;13.73;10.85;;;;;;;15.86;100.00;98516.34;4176441;28;20073;-73
2023/08/19 03:31:53;;;;;;;10.68;9.68;;;;;;;15.87;100.00;98515.13;4176189;28;20053;-74
2023/08/19 03:33:53;;;;;;;10.40;9.30;;;;;;;15.85;100.00;98516.75;4175735;28;20166;-74
2023/08/19 03:35:58;;;;;;;10.77;9.43;;;;;;;15.88;100.00;98511.13;4176455;28;20048;-74
2023/08/19 03:37:58;;;;;;;10.75;9.65;;;;;;;15.87;100.00;98508.75;4175602;28;20080;-74
2023/08/19 03:39:59;;;;;;;10.15;9.23;;;;;;;15.85;100.00;98516.75;4176004;28;20684;-74
2023/08/19 03:41:59;;;;;;;13.82;11.48;;;;;;;15.84;100.00;98524.31;4176336;28;20553;-74
2023/08/19 03:43:59;;;;;;;12.07;10.32;;;;;;;15.81;100.00;98516.78;4175725;28;20511;-74
2023/08/19 03:46:00;;;;;;;13.68;11.40;;;;;;;15.81;100.00;98532.75;4175983;28;20430;-74
2023/08/19 03:48:00;;;;;;;13.75;12.27;;;;;;;15.80;100.00;98526.34;4175814;28;20044;-74
2023/08/19 03:50:00;;;;;;;13.73;12.30;;;;;;;15.79;100.00;98524.75;4175850;28;20043;-74
2023/08/19 03:52:01;;;;;;;14.77;12.30;;;;;;;15.78;100.00;98523.19;4174443;28;20405;-75
2023/08/19 03:54:01;;;;;;;16.63;12.20;;;;;;;15.77;100.00;98523.59;4175181;28;20120;-75
2023/08/19 03:56:01;;;;;;;16.83;12.63;;;;;;;15.75;100.00;98526.81;4176029;28;20112;-74
2023/08/19 03:58:02;;;;;;;15.07;12.45;;;;;;;15.72;100.00;98530.41;4175711;28;20843;-74
2023/08/19 04:00:03;;;;;;;17.80;13.32;;;;;;;15.70;100.00;98527.22;4175670;28;20037;-74
2023/08/19 04:02:03;;;;;;;14.98;12.77;;;;;;;15.64;100.00;98526.09;4176186;28;20051;-74
2023/08/19 04:04:04;;;;;;;14.00;12.30;;;;;;;15.61;100.00;98524.91;4175337;28;20040;-74
2023/08/19 04:06:04;;;;;;;12.65;11.30;;;;;;;15.61;100.00;98536.06;4175191;28;20459;-74
2023/08/19 04:08:05;;;;;;;14.23;11.82;;;;;;;15.59;100.00;98532.88;4175590;28;20051;-74
2023/08/19 04:10:06;;;;;;;14.60;13.10;;;;;;;15.57;100.00;98534.50;4175858;28;20041;-74
2023/08/19 04:12:07;;;;;;;13.77;12.25;;;;;;;15.56;100.00;98532.91;4175561;28;20400;-74
2023/08/19 04:14:07;;;;;;;13.32;11.95;;;;;;;15.52;100.00;98532.91;4174875;28;20033;-73
2023/08/19 04:16:07;;;;;;;13.25;11.77;;;;;;;15.50;100.00;98531.75;4175895;28;20040;-74
2023/08/19 04:18:08;;;;;;;13.95;11.93;;;;;;;15.49;100.00;98539.31;4175791;28;20064;-74
2023/08/19 04:20:09;;;;;;;15.10;13.32;;;;;;;15.48;100.00;98528.59;4175442;28;20045;-74
2023/08/19 04:22:15;;;;;;;13.00;11.55;;;;;;;15.46;100.00;98528.97;4174843;28;20041;-74
2023/08/19 04:24:15;;;;;;;17.48;12.95;;;;;;;15.43;100.00;98527.81;4174885;28;20041;-74
2023/08/19 04:26:15;;;;;;;13.98;12.50;;;;;;;15.44;100.00;98536.97;4175068;28;20029;-74
2023/08/19 04:28:16;;;;;;;14.38;12.88;;;;;;;15.44;100.00;98537.75;4175419;28;20568;-74
2023/08/19 04:30:16;;;;;;;12.82;11.50;;;;;;;15.43;100.00;98543.75;4175851;28;20125;-74
2023/08/19 04:32:16;;;;;;;13.38;11.98;;;;;;;15.41;100.00;98533.00;4174868;28;20110;-74
2023/08/19 04:34:17;;;;;;;13.95;12.45;;;;;;;15.40;100.00;98539.78;4173733;28;20047;-74
2023/08/19 04:36:17;;;;;;;15.43;13.05;;;;;;;15.39;100.00;98532.63;4175015;28;20083;-74
2023/08/19 04:38:17;;;;;;;12.70;11.40;;;;;;;15.40;100.00;98541.78;4175527;28;20061;-74
2023/08/19 04:40:18;;;;;;;14.02;11.95;;;;;;;15.34;100.00;98533.06;4175064;28;20040;-74
2023/08/19 04:42:18;;;;;;;13.32;11.63;;;;;;;15.37;100.00;98542.59;4175607;28;20036;-73
2023/08/19 04:44:18;;;;;;;12.88;11.43;;;;;;;15.41;100.00;98538.59;4174375;28;20400;-74
2023/08/19 04:46:19;;;;;;;16.23;12.70;;;;;;;15.44;100.00;98545.31;4174432;28;20487;-74
2023/08/19 04:48:19;;;;;;;16.52;13.38;;;;;;;15.45;100.00;98546.91;4175276;28;20036;-74
2023/08/19 04:50:21;;;;;;;15.50;13.70;;;;;;;15.46;100.00;98545.69;4174890;28;20357;-74
2023/08/19 04:52:22;;;;;;;16.10;14.40;;;;;;;15.43;100.00;98547.31;4175447;28;20045;-74
2023/08/19 04:54:22;;;;;;;17.48;13.88;;;;;;;15.45;100.00;98547.69;4174304;28;20156;-74
2023/08/19 04:56:22;;;;;;;21.45;14.75;;;;;;;15.43;100.00;98546.53;4174845;28;20499;-74
2023/08/19 04:58:23;;;;;;;15.88;14.18;;;;;;;15.43;100.00;98538.97;4174984;28;20519;-74
2023/08/19 05:00:23;;;;;;;17.35;14.18;;;;;;;15.47;100.00;98544.50;4174849;28;20124;-74
2023/08/19 05:02:24;;;;;;;20.35;14.18;;;;;;;15.50;100.00;98546.50;4174293;28;20068;-74
2023/08/19 05:04:24;;;;;;;15.32;12.70;;;;;;;15.53;100.00;98540.06;4174347;28;20048;-74
2023/08/19 05:06:25;;;;;;;15.25;12.93;;;;;;;15.59;100.00;98541.25;4174606;28;20496;-74
2023/08/19 05:08:25;;;;;;;16.35;13.50;;;;;;;15.62;100.00;98543.22;4174792;28;20132;-74
2023/08/19 05:10:25;;;;;;;14.77;13.27;;;;;;;15.67;100.00;98547.59;4174483;28;20080;-74
2023/08/19 05:12:26;;;;;;;15.48;13.13;;;;;;;15.71;100.00;98554.69;4174830;28;20048;-74
2023/08/19 05:14:26;;;;;;;16.15;13.13;;;;;;;15.74;100.00;98544.75;4174206;28;20041;-74
2023/08/19 05:16:26;;;;;;;14.57;13.07;;;;;;;15.79;100.00;98549.06;4174346;28;20076;-74
2023/08/19 05:18:27;;;;;;;13.38;11.93;;;;;;;15.85;100.00;98547.44;4174335;28;20077;-74
2023/08/19 05:20:27;;;;;;;13.60;12.25;;;;;;;15.92;100.00;98547.38;4173604;28;20052;-73
2023/08/19 05:22:28;;;;;;;14.48;12.98;;;;;;;15.97;100.00;98542.16;4174627;28;20389;-74
2023/08/19 05:24:28;;;;;;;13.93;12.10;;;;;;;16.05;100.00;98547.66;4174636;28;20506;-74
2023/08/19 05:26:28;;;;;;;12.60;11.30;;;;;;;16.13;100.00;98547.16;4173983;28;20041;-73
2023/08/19 05:28:29;;;;;;;12.10;10.90;;;;;;;16.18;100.00;98551.53;4174703;28;20072;-74
2023/08/19 05:30:29;;;;;;;13.73;12.32;;;;;;;16.22;100.00;98555.09;4174498;28;20064;-74
2023/08/19 05:32:30;;;;;;;14.18;11.70;;;;;;;16.29;100.00;98563.34;4174009;28;20069;-74
2023/08/19 05:34:30;;;;;;;14.35;12.85;;;;;;;16.34;100.00;98560.13;4172944;28;20068;-74
2023/08/19 05:36:30;;;;;;;12.95;11.65;;;;;;;16.36;100.00;98560.50;4174367;28;20075;-74
2023/08/19 05:38:31;;;;;;;12.13;10.93;;;;;;;16.44;100.00;98566.81;4174592;28;20049;-74
2023/08/19 05:40:31;;;;;;;12.02;10.82;;;;;;;16.48;100.00;98562.00;4173515;28;20041;-74
2023/08/19 05:42:31;;;;;;;14.18;12.23;;;;;;;16.54;100.00;98568.69;4173431;28;20287;-74
2023/08/19 05:44:32;;;;;;;12.30;11.00;;;;;;;16.56;100.00;98569.88;4173541;28;20100;-74
2023/08/19 05:46:32;;;;;;;12.70;11.50;;;;;;;16.62;100.00;98572.19;4173891;28;20041;-74
2023/08/19 05:48:33;;;;;;;14.63;13.07;;;;;;;16.69;100.00;98572.94;4173786;28;20132;-74
2023/08/19 05:50:34;;;;;;;12.45;11.00;;;;;;;16.79;100.00;98583.19;4174001;28;20049;-74
2023/08/19 05:52:34;;;;;;;14.85;12.50;;;;;;;16.85;100.00;98580.72;4173974;28;20029;-74
2023/08/19 05:54:34;;;;;;;16.13;12.85;;;;;;;16.93;100.00;98581.44;4173914;28;20040;-74
2023/08/19 05:56:35;;;;;;;16.40;12.57;;;;;;;17.03;100.00;98594.50;4173842;28;20052;-74
2023/08/19 05:58:35;;;;;;;13.38;11.85;;;;;;;17.12;100.00;98583.59;4174530;28;20036;-74
2023/08/19 06:00:35;;;;;;;12.68;11.27;;;;;;;17.14;100.00;98586.78;4173780;28;20072;-74
2023/08/19 06:02:36;;;;;;;15.27;12.25;;;;;;;17.18;100.00;98590.31;4172838;28;20440;-74
2023/08/19 06:04:36;;;;;;;17.40;12.70;;;;;;;17.26;100.00;98585.41;4173834;28;20143;-74
2023/08/19 06:06:36;;;;;;;12.95;11.60;;;;;;;17.28;100.00;98594.94;4165820;28;20522;-74
2023/08/19 06:08:37;;;;;;;14.38;12.20;;;;;;;17.33;100.00;98585.31;4181038;28;20033;-74
2023/08/19 06:10:43;;;;;;;13.48;12.07;;;;;;;17.39;100.00;98581.63;4173817;28;20135;-74
2023/08/19 06:12:43;;;;;;;14.18;12.43;;;;;;;17.45;100.00;98584.72;4173439;28;20099;-74
2023/08/19 06:14:44;;;;;;;14.45;12.07;;;;;;;17.52;100.00;98584.63;4173743;28;20057;-74
2023/08/19 06:16:45;;;;;;;16.42;12.63;;;;;;;17.63;100.00;98590.09;4174090;28;20052;-74
2023/08/19 06:18:45;;;;;;;12.88;11.50;;;;;;;17.71;100.00;98591.59;4173263;28;20118;-74
2023/08/19 06:20:47;;;;;;;14.25;12.02;;;;;;;17.77;100.00;98575.88;4173848;28;20048;-74
2023/08/19 06:22:47;;;;;;;13.15;11.55;;;;;;;17.85;100.00;98579.38;4173213;28;20056;-74
2023/08/19 06:24:48;;;;;;;13.95;12.48;;;;;;;17.93;100.00;98584.41;4173919;28;20045;-74
2023/08/19 06:26:48;;;;;;;14.77;12.55;;;;;;;17.99;100.00;98583.94;4174010;28;20041;-74
2023/08/19 06:28:49;;;;;;;14.30;11.93;;;;;;;18.08;100.00;98584.19;4173399;28;20041;-74
2023/08/19 06:30:50;;;;;;;13.27;11.88;;;;;;;18.14;100.00;98591.69;4173732;28;20086;-74
2023/08/19 06:32:51;;;;;;;13.43;12.02;;;;;;;18.19;100.00;98579.97;4172571;28;20049;-74
2023/08/19 06:34:51;;;;;;;13.27;11.68;;;;;;;18.29;100.00;98571.81;4173009;28;20041;-74
2023/08/19 06:37:13;;;;;;;14.85;12.77;;;;;;;18.38;100.00;98574.88;4159460;28;20068;-74
2023/08/19 06:39:25;;;;;;;14.27;12.70;;;;;;;18.50;100.00;98575.03;4173379;28;20500;-74
2023/08/19 06:41:28;;;;;;;13.45;12.00;;;;;;;18.61;100.00;98574.81;4173745;28;20049;-74
2023/08/19 06:43:30;;;;;;;;;;;;;;;18.72;100.00;98585.88;4170136;28;20551;-74
2023/08/19 06:45:30;;;;;;;17.65;12.25;;;;;;;18.78;100.00;98589.72;4173627;28;20524;-74
2023/08/19 06:47:32;;;;;;;15.45;12.95;;;;;;;18.87;100.00;98586.38;4172615;28;20049;-74
2023/08/19 06:49:32;;;;;;;17.02;14.18;;;;;;;18.92;100.00;98586.66;4168392;28;20041;-74
2023/08/19 06:51:33;;;;;;;20.92;14.90;;;;;;;18.99;100.00;98577.31;4164967;28;20058;-74
2023/08/19 06:53:34;;;;;;;16.30;14.60;;;;;;;19.03;100.00;98587.25;4169375;28;20404;-74
2023/08/19 06:55:39;;;;;;;19.23;15.73;;;;;;;19.12;100.00;98594.28;4163781;28;20079;-74
2023/08/19 06:57:47;;;;;;;21.05;14.43;;;;;;;19.15;100.00;98597.00;4164488;28;20045;-74
2023/08/19 06:59:51;;;;;;;16.70;14.90;;;;;;;19.20;100.00;98588.09;4166450;28;20386;-74
2023/08/19 07:01:52;;;;;;;18.83;14.73;;;;;;;19.29;100.00;98588.28;4173689;28;20041;-74
2023/08/19 07:03:53;;;;;;;15.45;13.73;;;;;;;19.37;100.00;98588.91;4170525;28;20485;-74
2023/08/19 07:05:55;;;;;;;17.20;13.52;;;;;;;19.43;100.00;98587.16;4167655;28;20044;-74
2023/08/19 07:07:57;;;;;;;17.13;13.52;;;;;;;19.55;100.00;98597.72;4176240;28;20499;-74
2023/08/19 07:09:58;;;;;;;15.77;12.90;;;;;;;19.62;100.00;98586.38;4172636;28;20405;-74
2023/08/19 07:11:59;;;;;;;14.25;12.38;;;;;;;19.74;100.00;98589.72;4175838;28;20127;-74
2023/08/19 07:13:59;;;;;;;16.35;12.48;;;;;;;19.81;100.00;98590.31;4175811;28;20047;-74
2023/08/19 07:16:02;;;;;;;13.18;11.38;;;;;;;19.90;100.00;98584.09;4173495;28;20085;-74
2023/08/19 07:18:03;;;;;;;;;;;;;;;19.99;100.00;98597.53;4175198;28;20053;-75
2023/08/19 07:20:06;;;;;;;14.23;11.52;;;;;;;20.08;100.00;98587.25;4171683;28;20368;-74
2023/08/19 07:22:07;;;;;;;;;;;;;;;20.23;100.00;98603.75;4174087;28;20033;-74
2023/08/19 07:24:08;;;;;;;17.35;12.02;;;;;;;20.38;100.00;98600.16;4171999;28;19928;-74
2023/08/19 07:26:08;;;;;;;13.32;11.77;;;;;;;20.47;100.00;98605.16;4173260;28;20037;-74
2023/08/19 07:28:13;;;;;;;14.43;12.80;;;;;;;20.60;100.00;98600.38;4172375;28;20035;-74
2023/08/19 07:30:14;;;;;;;14.15;11.30;;;;;;;20.72;100.00;98608.09;4172147;28;20021;-74
2023/08/19 07:32:15;;;;;;;13.55;11.98;;;;;;;20.80;100.00;98603.06;4175027;28;20083;-74
2023/08/19 07:34:16;;;;;;;11.60;9.95;;;;;;;20.88;100.00;98612.88;4172378;28;20552;-74
2023/08/19 07:36:16;;;;;;;14.38;11.02;;;;;;;20.96;100.00;98608.63;4174087;28;20063;-74
2023/08/19 07:38:17;;;;;;;13.20;10.70;;;;;;;21.11;100.00;98600.59;4174692;28;20029;-74
2023/08/19 07:40:17;;;;;;;11.23;10.05;;;;;;;21.22;100.00;98615.13;4174724;28;20775;-74
2023/08/19 07:42:17;;;;;;;10.73;9.60;;;;;;;21.30;100.00;98615.72;4174461;28;20378;-74
2023/08/19 07:44:18;;;;;;;12.10;10.57;;;;;;;21.38;100.00;98610.69;4173516;28;20161;-74
2023/08/19 07:46:18;;;;;;;15.23;10.70;;;;;;;21.47;100.00;98610.81;4173996;28;20544;-74
2023/08/19 07:48:18;;;;;;;13.23;9.77;;;;;;;21.62;100.00;98611.16;4174403;28;20090;-74
2023/08/19 07:50:19;;;;;;;18.45;11.45;;;;;;;21.76;100.00;98605.06;4174910;28;20028;-74
2023/08/19 07:52:19;;;;;;;21.70;10.82;;;;;;;21.82;100.00;98606.09;4174074;28;20120;-74
2023/08/19 07:54:22;;;;;;;14.93;10.00;;;;;;;21.91;100.00;98606.19;4174359;28;20126;-74
2023/08/19 07:56:22;;;;;;;13.65;9.40;;;;;;;21.99;100.00;98604.72;4174749;28;20053;-74
2023/08/19 07:58:22;;;;;;;12.00;9.45;;;;;;;22.07;100.00;98600.47;4174546;28;20041;-74
2023/08/19 08:00:23;;;;;;;10.95;8.63;;;;;;;22.16;100.00;98608.22;4174586;28;20079;-74
2023/08/19 08:02:23;;;;;;;10.88;9.77;;;;;;;22.23;100.00;98604.41;4172201;28;20052;-74
2023/08/19 08:04:24;;;;;;;10.13;9.13;;;;;;;22.26;100.00;98598.66;4171635;28;20382;-74
2023/08/19 08:06:25;;;;;;;12.38;10.00;;;;;;;22.36;100.00;98605.94;4171897;28;20734;-74
2023/08/19 08:08:25;;;;;;;11.43;9.10;;;;;;;22.46;100.00;98604.00;4172489;28;20125;-74
2023/08/19 08:10:25;;;;;;;11.60;9.98;;;;;;;22.55;100.00;98595.63;4173656;28;20795;-74
2023/08/19 08:12:26;;;;;;;13.25;9.10;;;;;;;22.69;100.00;98594.34;4172758;28;20156;-74
2023/08/19 08:14:26;;;;;;;10.13;8.98;;;;;;;22.81;100.00;98596.31;4173537;28;20074;-74
2023/08/19 08:16:27;;;;;;;10.38;9.25;;;;;;;22.88;100.00;98596.09;4173122;28;20051;-74
2023/08/19 08:18:27;;;;;;;9.38;8.48;;;;;;;23.00;100.00;98594.44;4173304;28;20080;-74
2023/08/19 08:20:29;;;;;;;11.88;9.98;;;;;;;23.12;100.00;98584.34;4173743;28;20055;-74
2023/08/19 08:22:29;;;;;;;9.68;8.68;;;;;;;23.22;100.00;98583.94;4173468;28;20077;-74
2023/08/19 08:24:29;;;;;;;13.50;9.10;;;;;;;23.35;100.00;98585.91;4174208;28;20551;-74
2023/08/19 08:26:30;;;;;;;10.15;8.20;;;;;;;23.53;100.00;98577.53;4174044;28;20083;-74
2023/08/19 08:28:30;;;;;;;9.25;7.65;;;;;;;23.68;100.00;98589.88;4173687;28;20044;-74
2023/08/19 08:30:31;;;;;;;8.95;7.85;;;;;;;23.77;100.00;98583.47;4173999;28;20040;-74
2023/08/19 08:32:31;;;;;;;8.98;8.00;;;;;;;23.91;100.00;98582.88;4172984;28;20060;-74
2023/08/19 08:34:31;;;;;;;7.90;7.10;;;;;;;24.01;100.00;98580.88;4173944;28;20044;-74
2023/08/19 08:36:32;;;;;;;7.40;6.68;;;;;;;24.04;100.00;98589.19;4174017;28;20068;-74
2023/08/19 08:38:32;;;;;;;8.13;7.13;;;;;;;24.18;100.00;98590.66;4174081;28;20088;-74
2023/08/19 08:40:33;;;;;;;11.90;6.80;;;;;;;24.22;100.00;98579.97;4174446;28;20098;-74
2023/08/19 08:42:33;;;;;;;7.45;6.68;;;;;;;24.34;100.00;98587.59;4172755;28;20041;-75
2023/08/19 08:44:37;;;;;;;8.35;7.53;;;;;;;24.43;100.00;98589.63;4173155;28;20056;-74
2023/08/19 08:46:39;;;;;;;7.78;6.95;;;;;;;24.48;100.00;98591.03;4174894;28;20481;-74
2023/08/19 08:48:41;;;;;;;6.53;5.93;;;;;;;24.50;100.00;98591.38;4173981;28;20067;-74
2023/08/19 08:50:41;;;;;;;7.40;6.70;;;;;;;24.55;100.00;98591.53;4173831;28;20057;-74
2023/08/19 08:52:42;;;;;;;7.55;6.85;;;;;;;24.67;100.00;98592.66;4172732;28;20596;-74
2023/08/19 08:54:45;;;;;;;9.85;7.20;;;;;;;24.78;100.00;98592.16;4173681;28;20384;-74
2023/08/19 08:56:45;;;;;;;7.93;7.05;;;;;;;24.88;100.00;98597.34;4172113;28;20556;-74
2023/08/19 08:58:45;;;;;;;9.63;6.88;;;;;;;24.96;100.00;98594.19;4173641;28;20075;-74
2023/08/19 09:00:48;;;;;;;7.20;6.50;;;;;;;25.01;100.00;98593.56;4173495;28;20040;-74
2023/08/19 09:02:51;;;;;;;7.18;6.47;;;;;;;25.06;100.00;98602.22;4172789;28;20417;-74
2023/08/19 09:04:51;;;;;;;8.13;6.70;;;;;;;25.15;100.00;98601.44;4173703;28;20053;-74
2023/08/19 09:07:00;;;;;;;7.10;6.45;;;;;;;25.16;100.00;98597.38;4173058;28;20329;-74
2023/08/19 09:09:08;;;;;;;7.10;6.40;;;;;;;25.18;100.00;98594.84;4172430;28;20073;-74
2023/08/19 09:11:13;;;;;;;6.45;5.82;;;;;;;25.29;100.00;98600.00;4173686;28;20314;-74
2023/08/19 09:13:18;;;;;;;11.02;6.45;;;;;;;25.42;100.00;98597.78;4172959;28;20041;-74